Lund, Texas
Current Conditions -  °F | °C
As of 3:35 AM on Friday 28 Nov 2014 (Local Time) from KEDC Reporting Station
Clear Clear  
Wind Chill: 41°   Ceiling: Unl
Heat Index: 41°   Visibility: 10mi
Dew Point: 34°   Wind: 0mph
Humidity: 76%   Direction: NA
Pressure: 30.35"   Gusts: NA
Location:  30.2988°N, 97.3874°W
Report Text: KEDC 280935Z AUTO 00000KT 10SM CLR 05/01 A3035 RMK AO2
Loading
Personal Weather Stations






























Interactive Weather Map New forecast layout! Learn more

10-Day Weather Forecast

Advertisements
Track Severe Weather on mobile